sensor_id;sensor_type;location;lat;lon;timestamp;P1;durP1;ratioP1;P2;durP2;ratioP2
20870;SDS011;10595;51.218;3.452;2022-12-05T00:04:32;53.97;;;25.23;;
20870;SDS011;10595;51.218;3.452;2022-12-05T00:06:58;53.27;;;26.73;;
20870;SDS011;10595;51.218;3.452;2022-12-05T00:09:27;59.90;;;27.70;;
20870;SDS011;10595;51.218;3.452;2022-12-05T00:18:45;55.57;;;26.20;;
20870;SDS011;10595;51.218;3.452;2022-12-05T00:41:41;55.17;;;26.43;;
20870;SDS011;10595;51.218;3.452;2022-12-05T00:48:00;55.60;;;26.03;;
20870;SDS011;10595;51.218;3.452;2022-12-05T00:50:29;50.97;;;26.37;;
20870;SDS011;10595;51.218;3.452;2022-12-05T00:56:16;50.70;;;25.10;;
20870;SDS011;10595;51.218;3.452;2022-12-05T01:04:45;51.77;;;24.07;;
20870;SDS011;10595;51.218;3.452;2022-12-05T01:10:06;46.77;;;23.63;;
20870;SDS011;10595;51.218;3.452;2022-12-05T01:22:06;43.43;;;21.90;;
20870;SDS011;10595;51.218;3.452;2022-12-05T01:28:15;40.80;;;20.87;;
20870;SDS011;10595;51.218;3.452;2022-12-05T01:37:03;39.63;;;21.07;;
20870;SDS011;10595;51.218;3.452;2022-12-05T01:48:57;41.70;;;20.57;;
20870;SDS011;10595;51.218;3.452;2022-12-05T01:51:36;40.33;;;19.37;;
20870;SDS011;10595;51.218;3.452;2022-12-05T02:06:07;43.37;;;20.70;;
20870;SDS011;10595;51.218;3.452;2022-12-05T02:08:43;39.87;;;19.77;;
20870;SDS011;10595;51.218;3.452;2022-12-05T02:38:42;46.63;;;20.90;;
20870;SDS011;10595;51.218;3.452;2022-12-05T02:47:08;45.10;;;22.13;;
20870;SDS011;10595;51.218;3.452;2022-12-05T02:49:36;45.03;;;22.10;;
20870;SDS011;10595;51.218;3.452;2022-12-05T02:52:07;55.33;;;24.93;;
20870;SDS011;10595;51.218;3.452;2022-12-05T02:54:35;59.13;;;25.80;;
20870;SDS011;10595;51.218;3.452;2022-12-05T02:57:03;45.50;;;21.83;;
20870;SDS011;10595;51.218;3.452;2022-12-05T02:59:29;50.60;;;23.70;;
20870;SDS011;10595;51.218;3.452;2022-12-05T03:01:55;41.47;;;20.83;;
20870;SDS011;10595;51.218;3.452;2022-12-05T03:04:22;53.60;;;25.43;;
20870;SDS011;10595;51.218;3.452;2022-12-05T03:07:22;49.30;;;22.97;;
20870;SDS011;10595;51.218;3.452;2022-12-05T03:09:46;52.80;;;24.80;;
20870;SDS011;10595;51.218;3.452;2022-12-05T03:12:26;51.10;;;24.80;;
20870;SDS011;10595;51.218;3.452;2022-12-05T03:14:55;39.47;;;21.17;;
20870;SDS011;10595;51.218;3.452;2022-12-05T03:17:25;40.57;;;21.33;;
20870;SDS011;10595;51.218;3.452;2022-12-05T03:19:57;42.17;;;22.03;;
20870;SDS011;10595;51.218;3.452;2022-12-05T03:24:55;44.53;;;21.80;;
20870;SDS011;10595;51.218;3.452;2022-12-05T03:27:24;43.47;;;22.47;;
20870;SDS011;10595;51.218;3.452;2022-12-05T03:30:03;47.63;;;22.17;;
20870;SDS011;10595;51.218;3.452;2022-12-05T03:32:48;43.63;;;21.43;;
20870;SDS011;10595;51.218;3.452;2022-12-05T03:35:19;44.60;;;22.20;;
20870;SDS011;10595;51.218;3.452;2022-12-05T03:40:31;45.40;;;21.83;;
20870;SDS011;10595;51.218;3.452;2022-12-05T03:43:03;45.83;;;23.37;;
20870;SDS011;10595;51.218;3.452;2022-12-05T03:45:46;48.70;;;23.87;;
20870;SDS011;10595;51.218;3.452;2022-12-05T03:50:46;42.83;;;21.90;;
20870;SDS011;10595;51.218;3.452;2022-12-05T03:53:18;44.20;;;23.23;;
20870;SDS011;10595;51.218;3.452;2022-12-05T03:55:46;47.10;;;23.43;;
20870;SDS011;10595;51.218;3.452;2022-12-05T03:58:16;48.47;;;25.17;;
20870;SDS011;10595;51.218;3.452;2022-12-05T04:00:45;48.47;;;25.13;;
20870;SDS011;10595;51.218;3.452;2022-12-05T04:03:26;44.60;;;23.80;;
20870;SDS011;10595;51.218;3.452;2022-12-05T04:06:03;46.70;;;24.10;;
20870;SDS011;10595;51.218;3.452;2022-12-05T04:08:36;61.73;;;29.03;;
20870;SDS011;10595;51.218;3.452;2022-12-05T04:11:08;60.73;;;29.43;;
20870;SDS011;10595;51.218;3.452;2022-12-05T04:13:37;56.93;;;27.40;;
20870;SDS011;10595;51.218;3.452;2022-12-05T04:16:06;56.03;;;27.93;;
20870;SDS011;10595;51.218;3.452;2022-12-05T04:19:35;67.97;;;29.93;;
20870;SDS011;10595;51.218;3.452;2022-12-05T04:21:43;59.87;;;27.93;;
20870;SDS011;10595;51.218;3.452;2022-12-05T04:24:29;61.10;;;28.47;;
20870;SDS011;10595;51.218;3.452;2022-12-05T04:29:43;71.53;;;30.97;;
20870;SDS011;10595;51.218;3.452;2022-12-05T04:32:10;56.40;;;26.60;;
20870;SDS011;10595;51.218;3.452;2022-12-05T04:34:41;74.43;;;33.97;;
20870;SDS011;10595;51.218;3.452;2022-12-05T04:37:11;80.07;;;37.90;;
20870;SDS011;10595;51.218;3.452;2022-12-05T04:39:43;59.70;;;28.90;;
20870;SDS011;10595;51.218;3.452;2022-12-05T04:42:32;54.33;;;26.80;;
20870;SDS011;10595;51.218;3.452;2022-12-05T04:45:02;69.13;;;31.43;;
20870;SDS011;10595;51.218;3.452;2022-12-05T04:47:30;72.47;;;33.17;;
20870;SDS011;10595;51.218;3.452;2022-12-05T04:50:03;89.30;;;37.97;;
20870;SDS011;10595;51.218;3.452;2022-12-05T04:52:30;55.90;;;27.30;;
20870;SDS011;10595;51.218;3.452;2022-12-05T04:55:17;58.63;;;28.37;;
20870;SDS011;10595;51.218;3.452;2022-12-05T04:58:04;52.83;;;25.93;;
20870;SDS011;10595;51.218;3.452;2022-12-05T05:03:54;68.17;;;31.27;;
20870;SDS011;10595;51.218;3.452;2022-12-05T05:06:25;62.40;;;29.43;;
20870;SDS011;10595;51.218;3.452;2022-12-05T05:12:12;52.83;;;25.90;;
20870;SDS011;10595;51.218;3.452;2022-12-05T05:14:56;58.70;;;28.43;;
20870;SDS011;10595;51.218;3.452;2022-12-05T05:17:48;55.67;;;26.13;;
20870;SDS011;10595;51.218;3.452;2022-12-05T05:20:19;60.57;;;29.57;;
20870;SDS011;10595;51.218;3.452;2022-12-05T05:22:56;61.40;;;29.53;;
20870;SDS011;10595;51.218;3.452;2022-12-05T05:25:35;60.00;;;29.27;;
20870;SDS011;10595;51.218;3.452;2022-12-05T05:28:15;63.83;;;30.37;;
20870;SDS011;10595;51.218;3.452;2022-12-05T05:31:16;65.63;;;30.37;;
20870;SDS011;10595;51.218;3.452;2022-12-05T05:34:02;71.20;;;31.87;;
20870;SDS011;10595;51.218;3.452;2022-12-05T05:36:59;81.80;;;36.30;;
20870;SDS011;10595;51.218;3.452;2022-12-05T05:43:00;75.63;;;33.50;;
20870;SDS011;10595;51.218;3.452;2022-12-05T05:45:50;73.23;;;32.10;;
20870;SDS011;10595;51.218;3.452;2022-12-05T05:48:38;80.63;;;34.80;;
20870;SDS011;10595;51.218;3.452;2022-12-05T05:51:26;70.30;;;31.87;;
20870;SDS011;10595;51.218;3.452;2022-12-05T05:53:54;72.60;;;31.73;;
20870;SDS011;10595;51.218;3.452;2022-12-05T05:56:29;67.77;;;32.30;;
20870;SDS011;10595;51.218;3.452;2022-12-05T05:58:58;75.30;;;33.47;;
20870;SDS011;10595;51.218;3.452;2022-12-05T06:01:24;68.30;;;32.57;;
20870;SDS011;10595;51.218;3.452;2022-12-05T06:03:51;66.93;;;31.43;;
20870;SDS011;10595;51.218;3.452;2022-12-05T06:06:20;72.87;;;32.07;;
20870;SDS011;10595;51.218;3.452;2022-12-05T06:08:56;82.17;;;37.67;;
20870;SDS011;10595;51.218;3.452;2022-12-05T06:11:25;68.70;;;32.17;;
20870;SDS011;10595;51.218;3.452;2022-12-05T06:14:01;73.83;;;33.93;;
20870;SDS011;10595;51.218;3.452;2022-12-05T06:16:27;78.73;;;38.87;;
20870;SDS011;10595;51.218;3.452;2022-12-05T06:19:10;66.07;;;33.27;;
20870;SDS011;10595;51.218;3.452;2022-12-05T06:21:42;78.27;;;34.97;;
20870;SDS011;10595;51.218;3.452;2022-12-05T06:24:11;68.67;;;32.27;;
20870;SDS011;10595;51.218;3.452;2022-12-05T06:26:37;72.90;;;33.40;;
20870;SDS011;10595;51.218;3.452;2022-12-05T06:29:03;70.03;;;33.87;;
20870;SDS011;10595;51.218;3.452;2022-12-05T06:34:45;66.13;;;32.07;;
20870;SDS011;10595;51.218;3.452;2022-12-05T06:37:11;69.73;;;32.30;;
20870;SDS011;10595;51.218;3.452;2022-12-05T06:39:40;67.53;;;32.57;;
20870;SDS011;10595;51.218;3.452;2022-12-05T06:42:12;65.87;;;31.33;;
20870;SDS011;10595;51.218;3.452;2022-12-05T06:44:47;67.53;;;32.97;;
20870;SDS011;10595;51.218;3.452;2022-12-05T06:47:21;72.43;;;34.13;;
20870;SDS011;10595;51.218;3.452;2022-12-05T06:49:47;78.03;;;36.10;;
20870;SDS011;10595;51.218;3.452;2022-12-05T06:52:13;72.50;;;33.70;;
20870;SDS011;10595;51.218;3.452;2022-12-05T06:54:40;70.90;;;33.87;;
20870;SDS011;10595;51.218;3.452;2022-12-05T06:57:05;67.87;;;32.27;;
20870;SDS011;10595;51.218;3.452;2022-12-05T06:59:31;66.43;;;31.83;;
20870;SDS011;10595;51.218;3.452;2022-12-05T07:01:57;71.07;;;34.20;;
20870;SDS011;10595;51.218;3.452;2022-12-05T07:04:24;65.47;;;34.92;;
20870;SDS011;10595;51.218;3.452;2022-12-05T07:06:52;71.87;;;34.43;;
20870;SDS011;10595;51.218;3.452;2022-12-05T07:09:19;65.33;;;33.00;;
20870;SDS011;10595;51.218;3.452;2022-12-05T07:11:46;63.33;;;31.83;;
20870;SDS011;10595;51.218;3.452;2022-12-05T07:14:12;62.67;;;30.40;;
20870;SDS011;10595;51.218;3.452;2022-12-05T07:16:38;66.50;;;30.03;;
20870;SDS011;10595;51.218;3.452;2022-12-05T07:19:04;62.57;;;30.07;;
20870;SDS011;10595;51.218;3.452;2022-12-05T07:21:30;63.33;;;31.37;;
20870;SDS011;10595;51.218;3.452;2022-12-05T07:23:56;58.07;;;28.93;;
20870;SDS011;10595;51.218;3.452;2022-12-05T07:26:22;65.00;;;32.93;;
20870;SDS011;10595;51.218;3.452;2022-12-05T07:28:49;57.33;;;29.93;;
20870;SDS011;10595;51.218;3.452;2022-12-05T07:31:19;61.13;;;30.33;;
20870;SDS011;10595;51.218;3.452;2022-12-05T07:33:46;64.13;;;30.70;;
20870;SDS011;10595;51.218;3.452;2022-12-05T07:36:13;57.70;;;29.40;;
20870;SDS011;10595;51.218;3.452;2022-12-05T07:38:40;61.27;;;29.87;;
20870;SDS011;10595;51.218;3.452;2022-12-05T07:41:07;57.97;;;28.97;;
20870;SDS011;10595;51.218;3.452;2022-12-05T07:43:34;55.23;;;29.07;;
20870;SDS011;10595;51.218;3.452;2022-12-05T07:46:00;56.23;;;28.50;;
20870;SDS011;10595;51.218;3.452;2022-12-05T07:48:27;53.93;;;28.63;;
20870;SDS011;10595;51.218;3.452;2022-12-05T07:50:53;55.77;;;28.70;;
20870;SDS011;10595;51.218;3.452;2022-12-05T07:53:19;53.83;;;28.30;;
20870;SDS011;10595;51.218;3.452;2022-12-05T07:55:45;57.13;;;28.27;;
20870;SDS011;10595;51.218;3.452;2022-12-05T07:58:11;55.43;;;28.33;;
20870;SDS011;10595;51.218;3.452;2022-12-05T08:00:37;51.03;;;27.23;;
20870;SDS011;10595;51.218;3.452;2022-12-05T08:03:03;51.37;;;27.20;;
20870;SDS011;10595;51.218;3.452;2022-12-05T08:05:29;50.00;;;26.37;;
20870;SDS011;10595;51.218;3.452;2022-12-05T08:07:55;50.70;;;26.27;;
20870;SDS011;10595;51.218;3.452;2022-12-05T08:10:21;52.80;;;27.70;;
20870;SDS011;10595;51.218;3.452;2022-12-05T08:12:47;53.97;;;27.40;;
20870;SDS011;10595;51.218;3.452;2022-12-05T08:15:13;48.10;;;26.47;;
20870;SDS011;10595;51.218;3.452;2022-12-05T08:17:39;50.67;;;26.40;;
20870;SDS011;10595;51.218;3.452;2022-12-05T08:20:05;51.17;;;25.90;;
20870;SDS011;10595;51.218;3.452;2022-12-05T08:22:31;50.70;;;25.23;;
20870;SDS011;10595;51.218;3.452;2022-12-05T08:24:57;50.20;;;26.80;;
20870;SDS011;10595;51.218;3.452;2022-12-05T08:27:23;55.27;;;28.90;;
20870;SDS011;10595;51.218;3.452;2022-12-05T08:29:49;55.47;;;28.07;;
20870;SDS011;10595;51.218;3.452;2022-12-05T08:32:16;56.50;;;27.10;;
20870;SDS011;10595;51.218;3.452;2022-12-05T08:34:42;50.47;;;25.73;;
20870;SDS011;10595;51.218;3.452;2022-12-05T08:37:08;53.97;;;27.33;;
20870;SDS011;10595;51.218;3.452;2022-12-05T08:39:34;54.33;;;26.30;;
20870;SDS011;10595;51.218;3.452;2022-12-05T08:42:00;53.73;;;27.80;;
20870;SDS011;10595;51.218;3.452;2022-12-05T08:44:26;52.10;;;26.13;;
20870;SDS011;10595;51.218;3.452;2022-12-05T08:46:52;59.50;;;28.23;;
20870;SDS011;10595;51.218;3.452;2022-12-05T08:49:18;61.53;;;28.67;;
20870;SDS011;10595;51.218;3.452;2022-12-05T08:51:44;54.40;;;28.27;;
20870;SDS011;10595;51.218;3.452;2022-12-05T08:54:10;58.43;;;29.30;;
20870;SDS011;10595;51.218;3.452;2022-12-05T08:56:37;51.77;;;27.93;;
20870;SDS011;10595;51.218;3.452;2022-12-05T08:59:03;51.80;;;25.60;;
20870;SDS011;10595;51.218;3.452;2022-12-05T09:01:29;53.23;;;26.77;;
20870;SDS011;10595;51.218;3.452;2022-12-05T09:03:57;53.17;;;26.07;;
20870;SDS011;10595;51.218;3.452;2022-12-05T09:06:24;54.13;;;27.57;;
20870;SDS011;10595;51.218;3.452;2022-12-05T09:08:57;62.53;;;28.17;;
20870;SDS011;10595;51.218;3.452;2022-12-05T09:11:26;57.13;;;29.07;;
20870;SDS011;10595;51.218;3.452;2022-12-05T09:13:53;61.30;;;30.23;;
20870;SDS011;10595;51.218;3.452;2022-12-05T09:16:20;55.57;;;29.17;;
20870;SDS011;10595;51.218;3.452;2022-12-05T09:18:47;56.63;;;28.87;;
20870;SDS011;10595;51.218;3.452;2022-12-05T09:21:17;56.80;;;28.70;;
20870;SDS011;10595;51.218;3.452;2022-12-05T09:23:43;63.93;;;29.83;;
20870;SDS011;10595;51.218;3.452;2022-12-05T09:26:10;66.13;;;32.83;;
20870;SDS011;10595;51.218;3.452;2022-12-05T09:28:37;63.77;;;30.10;;
20870;SDS011;10595;51.218;3.452;2022-12-05T09:31:04;62.60;;;29.97;;
20870;SDS011;10595;51.218;3.452;2022-12-05T09:33:31;53.47;;;26.43;;
20870;SDS011;10595;51.218;3.452;2022-12-05T09:35:58;51.13;;;26.60;;
20870;SDS011;10595;51.218;3.452;2022-12-05T09:38:26;48.60;;;24.50;;
20870;SDS011;10595;51.218;3.452;2022-12-05T09:41:14;49.13;;;25.03;;
20870;SDS011;10595;51.218;3.452;2022-12-05T09:43:54;50.83;;;27.90;;
20870;SDS011;10595;51.218;3.452;2022-12-05T09:46:40;50.13;;;25.20;;
20870;SDS011;10595;51.218;3.452;2022-12-05T09:49:08;48.83;;;26.37;;
20870;SDS011;10595;51.218;3.452;2022-12-05T09:51:35;44.87;;;24.50;;
20870;SDS011;10595;51.218;3.452;2022-12-05T09:54:04;49.10;;;26.23;;
20870;SDS011;10595;51.218;3.452;2022-12-05T09:56:30;49.33;;;26.53;;
20870;SDS011;10595;51.218;3.452;2022-12-05T09:58:57;48.67;;;26.37;;
20870;SDS011;10595;51.218;3.452;2022-12-05T10:01:40;52.37;;;26.13;;
20870;SDS011;10595;51.218;3.452;2022-12-05T10:09:12;56.70;;;27.73;;
20870;SDS011;10595;51.218;3.452;2022-12-05T10:11:47;53.03;;;27.43;;
20870;SDS011;10595;51.218;3.452;2022-12-05T10:14:24;63.53;;;32.30;;
20870;SDS011;10595;51.218;3.452;2022-12-05T10:16:54;54.53;;;28.70;;
20870;SDS011;10595;51.218;3.452;2022-12-05T10:19:23;50.43;;;27.03;;
20870;SDS011;10595;51.218;3.452;2022-12-05T10:21:55;49.43;;;25.83;;
20870;SDS011;10595;51.218;3.452;2022-12-05T10:49:16;35.67;;;21.73;;
20870;SDS011;10595;51.218;3.452;2022-12-05T10:51:42;35.17;;;20.47;;
20870;SDS011;10595;51.218;3.452;2022-12-05T10:54:14;34.97;;;21.07;;
20870;SDS011;10595;51.218;3.452;2022-12-05T10:56:45;33.23;;;20.97;;
20870;SDS011;10595;51.218;3.452;2022-12-05T10:59:16;33.53;;;20.43;;
20870;SDS011;10595;51.218;3.452;2022-12-05T11:01:55;34.50;;;20.23;;
20870;SDS011;10595;51.218;3.452;2022-12-05T11:04:23;35.63;;;20.90;;
20870;SDS011;10595;51.218;3.452;2022-12-05T11:06:57;33.73;;;19.90;;
20870;SDS011;10595;51.218;3.452;2022-12-05T11:09:24;81.20;;;42.10;;
20870;SDS011;10595;51.218;3.452;2022-12-05T11:12:01;38.20;;;22.13;;
20870;SDS011;10595;51.218;3.452;2022-12-05T11:14:28;34.37;;;20.50;;
20870;SDS011;10595;51.218;3.452;2022-12-05T11:16:56;33.63;;;19.53;;
20870;SDS011;10595;51.218;3.452;2022-12-05T11:19:30;30.80;;;19.47;;
20870;SDS011;10595;51.218;3.452;2022-12-05T11:21:57;33.43;;;19.17;;
20870;SDS011;10595;51.218;3.452;2022-12-05T11:26:52;34.33;;;19.60;;
20870;SDS011;10595;51.218;3.452;2022-12-05T11:29:28;29.03;;;18.73;;
20870;SDS011;10595;51.218;3.452;2022-12-05T11:31:54;32.27;;;19.77;;
20870;SDS011;10595;51.218;3.452;2022-12-05T11:34:21;30.40;;;18.43;;
20870;SDS011;10595;51.218;3.452;2022-12-05T11:36:51;31.90;;;19.17;;
20870;SDS011;10595;51.218;3.452;2022-12-05T11:39:19;33.60;;;18.60;;
20870;SDS011;10595;51.218;3.452;2022-12-05T11:54:44;30.93;;;19.53;;
20870;SDS011;10595;51.218;3.452;2022-12-05T12:30:34;27.73;;;17.37;;
20870;SDS011;10595;51.218;3.452;2022-12-05T12:33:06;32.93;;;17.77;;
20870;SDS011;10595;51.218;3.452;2022-12-05T12:35:41;32.47;;;18.30;;
20870;SDS011;10595;51.218;3.452;2022-12-05T12:43:53;38.13;;;19.23;;
20870;SDS011;10595;51.218;3.452;2022-12-05T12:46:37;40.17;;;20.07;;
20870;SDS011;10595;51.218;3.452;2022-12-05T12:51:43;35.03;;;18.60;;
20870;SDS011;10595;51.218;3.452;2022-12-05T13:04:47;39.20;;;21.53;;
20870;SDS011;10595;51.218;3.452;2022-12-05T13:07:15;44.30;;;22.93;;
20870;SDS011;10595;51.218;3.452;2022-12-05T13:12:13;38.70;;;22.07;;
20870;SDS011;10595;51.218;3.452;2022-12-05T13:14:43;43.57;;;22.43;;
20870;SDS011;10595;51.218;3.452;2022-12-05T13:17:09;40.47;;;22.30;;
20870;SDS011;10595;51.218;3.452;2022-12-05T13:19:41;38.60;;;22.03;;
20870;SDS011;10595;51.218;3.452;2022-12-05T13:22:07;47.90;;;24.07;;
20870;SDS011;10595;51.218;3.452;2022-12-05T13:24:34;43.73;;;24.57;;
20870;SDS011;10595;51.218;3.452;2022-12-05T13:27:01;40.00;;;23.47;;
20870;SDS011;10595;51.218;3.452;2022-12-05T13:29:30;41.10;;;22.40;;
20870;SDS011;10595;51.218;3.452;2022-12-05T13:31:58;41.33;;;21.93;;
20870;SDS011;10595;51.218;3.452;2022-12-05T13:36:57;40.23;;;21.93;;
20870;SDS011;10595;51.218;3.452;2022-12-05T13:39:49;41.37;;;22.27;;
20870;SDS011;10595;51.218;3.452;2022-12-05T13:42:34;38.77;;;22.37;;
20870;SDS011;10595;51.218;3.452;2022-12-05T13:52:31;42.30;;;21.53;;
20870;SDS011;10595;51.218;3.452;2022-12-05T13:55:13;38.43;;;22.37;;
20870;SDS011;10595;51.218;3.452;2022-12-05T13:57:45;39.03;;;22.70;;
20870;SDS011;10595;51.218;3.452;2022-12-05T14:10:04;35.53;;;19.70;;
20870;SDS011;10595;51.218;3.452;2022-12-05T14:12:42;38.13;;;20.93;;
20870;SDS011;10595;51.218;3.452;2022-12-05T14:18:42;35.77;;;20.10;;
20870;SDS011;10595;51.218;3.452;2022-12-05T14:23:20;36.80;;;19.80;;
20870;SDS011;10595;51.218;3.452;2022-12-05T14:33:25;33.50;;;19.70;;
20870;SDS011;10595;51.218;3.452;2022-12-05T14:35:51;33.73;;;19.37;;
20870;SDS011;10595;51.218;3.452;2022-12-05T14:38:22;33.30;;;19.90;;
20870;SDS011;10595;51.218;3.452;2022-12-05T14:40:52;35.83;;;20.00;;
20870;SDS011;10595;51.218;3.452;2022-12-05T14:43:28;31.57;;;19.37;;
20870;SDS011;10595;51.218;3.452;2022-12-05T14:45:59;35.30;;;19.63;;
20870;SDS011;10595;51.218;3.452;2022-12-05T14:48:32;34.77;;;19.60;;
20870;SDS011;10595;51.218;3.452;2022-12-05T14:50:59;28.47;;;18.23;;
20870;SDS011;10595;51.218;3.452;2022-12-05T14:53:33;31.57;;;18.67;;
20870;SDS011;10595;51.218;3.452;2022-12-05T15:01:21;26.90;;;17.07;;
20870;SDS011;10595;51.218;3.452;2022-12-05T15:06:23;26.30;;;17.07;;
20870;SDS011;10595;51.218;3.452;2022-12-05T15:08:50;25.97;;;16.00;;
20870;SDS011;10595;51.218;3.452;2022-12-05T15:11:20;29.33;;;17.57;;
20870;SDS011;10595;51.218;3.452;2022-12-05T15:13:54;29.23;;;16.77;;
20870;SDS011;10595;51.218;3.452;2022-12-05T15:16:21;30.43;;;17.53;;
20870;SDS011;10595;51.218;3.452;2022-12-05T15:18:50;28.20;;;17.97;;
20870;SDS011;10595;51.218;3.452;2022-12-05T15:24:03;23.63;;;15.73;;
20870;SDS011;10595;51.218;3.452;2022-12-05T15:31:35;38.33;;;18.67;;
20870;SDS011;10595;51.218;3.452;2022-12-05T15:34:04;23.30;;;14.30;;
20870;SDS011;10595;51.218;3.452;2022-12-05T15:36:34;30.83;;;16.63;;
20870;SDS011;10595;51.218;3.452;2022-12-05T15:39:02;24.47;;;15.67;;
20870;SDS011;10595;51.218;3.452;2022-12-05T15:41:28;26.37;;;14.87;;
20870;SDS011;10595;51.218;3.452;2022-12-05T15:43:55;22.63;;;14.40;;
20870;SDS011;10595;51.218;3.452;2022-12-05T15:46:22;19.00;;;13.30;;
20870;SDS011;10595;51.218;3.452;2022-12-05T15:48:52;18.47;;;12.63;;
20870;SDS011;10595;51.218;3.452;2022-12-05T15:51:20;18.67;;;13.07;;
20870;SDS011;10595;51.218;3.452;2022-12-05T15:53:50;19.23;;;11.97;;
20870;SDS011;10595;51.218;3.452;2022-12-05T15:56:21;15.60;;;11.40;;
20870;SDS011;10595;51.218;3.452;2022-12-05T16:01:22;16.13;;;10.90;;
20870;SDS011;10595;51.218;3.452;2022-12-05T16:04:01;16.97;;;11.27;;
20870;SDS011;10595;51.218;3.452;2022-12-05T16:06:37;17.70;;;11.63;;
20870;SDS011;10595;51.218;3.452;2022-12-05T16:09:11;18.13;;;11.97;;
20870;SDS011;10595;51.218;3.452;2022-12-05T16:11:39;16.23;;;10.27;;
20870;SDS011;10595;51.218;3.452;2022-12-05T16:14:15;18.40;;;11.90;;
20870;SDS011;10595;51.218;3.452;2022-12-05T16:16:41;14.40;;;10.63;;
20870;SDS011;10595;51.218;3.452;2022-12-05T16:19:15;19.60;;;10.73;;
20870;SDS011;10595;51.218;3.452;2022-12-05T16:21:45;15.50;;;11.07;;
20870;SDS011;10595;51.218;3.452;2022-12-05T16:26:40;14.97;;;10.23;;
20870;SDS011;10595;51.218;3.452;2022-12-05T16:29:07;16.83;;;10.60;;
20870;SDS011;10595;51.218;3.452;2022-12-05T16:31:52;16.67;;;11.05;;
20870;SDS011;10595;51.218;3.452;2022-12-05T16:34:18;15.33;;;11.03;;
20870;SDS011;10595;51.218;3.452;2022-12-05T16:36:45;16.57;;;10.53;;
20870;SDS011;10595;51.218;3.452;2022-12-05T16:39:12;16.93;;;11.13;;
20870;SDS011;10595;51.218;3.452;2022-12-05T16:41:39;15.03;;;11.13;;
20870;SDS011;10595;51.218;3.452;2022-12-05T16:44:27;16.97;;;10.37;;
20870;SDS011;10595;51.218;3.452;2022-12-05T16:46:51;13.93;;;11.27;;
20870;SDS011;10595;51.218;3.452;2022-12-05T16:51:44;15.93;;;11.23;;
20870;SDS011;10595;51.218;3.452;2022-12-05T16:54:10;18.20;;;11.77;;
20870;SDS011;10595;51.218;3.452;2022-12-05T16:56:37;16.73;;;10.73;;
20870;SDS011;10595;51.218;3.452;2022-12-05T16:59:04;16.97;;;11.07;;
20870;SDS011;10595;51.218;3.452;2022-12-05T17:01:30;16.83;;;11.67;;
20870;SDS011;10595;51.218;3.452;2022-12-05T17:03:56;18.83;;;11.93;;
20870;SDS011;10595;51.218;3.452;2022-12-05T17:06:23;15.43;;;11.77;;
20870;SDS011;10595;51.218;3.452;2022-12-05T17:08:50;18.77;;;11.23;;
20870;SDS011;10595;51.218;3.452;2022-12-05T17:11:20;18.23;;;12.50;;
20870;SDS011;10595;51.218;3.452;2022-12-05T17:13:47;18.27;;;11.40;;
20870;SDS011;10595;51.218;3.452;2022-12-05T17:16:14;19.90;;;11.57;;
20870;SDS011;10595;51.218;3.452;2022-12-05T17:18:42;15.57;;;11.17;;
20870;SDS011;10595;51.218;3.452;2022-12-05T17:21:15;16.73;;;11.90;;
20870;SDS011;10595;51.218;3.452;2022-12-05T17:23:41;17.73;;;11.70;;
20870;SDS011;10595;51.218;3.452;2022-12-05T17:26:08;16.17;;;11.40;;
20870;SDS011;10595;51.218;3.452;2022-12-05T17:28:37;18.67;;;12.80;;
20870;SDS011;10595;51.218;3.452;2022-12-05T17:31:03;17.10;;;11.97;;
20870;SDS011;10595;51.218;3.452;2022-12-05T17:33:29;19.67;;;12.30;;
20870;SDS011;10595;51.218;3.452;2022-12-05T17:35:55;21.37;;;13.77;;
20870;SDS011;10595;51.218;3.452;2022-12-05T17:38:22;19.10;;;13.33;;
20870;SDS011;10595;51.218;3.452;2022-12-05T17:40:47;18.50;;;13.30;;
20870;SDS011;10595;51.218;3.452;2022-12-05T17:43:14;20.17;;;13.43;;
20870;SDS011;10595;51.218;3.452;2022-12-05T17:45:40;18.97;;;12.57;;
20870;SDS011;10595;51.218;3.452;2022-12-05T17:48:10;23.17;;;13.00;;
20870;SDS011;10595;51.218;3.452;2022-12-05T17:50:37;18.13;;;12.80;;
20870;SDS011;10595;51.218;3.452;2022-12-05T17:53:04;18.13;;;12.63;;
20870;SDS011;10595;51.218;3.452;2022-12-05T17:55:30;16.97;;;11.93;;
20870;SDS011;10595;51.218;3.452;2022-12-05T17:57:56;18.33;;;13.00;;
20870;SDS011;10595;51.218;3.452;2022-12-05T18:00:22;18.87;;;12.73;;
20870;SDS011;10595;51.218;3.452;2022-12-05T18:02:49;19.87;;;12.90;;
20870;SDS011;10595;51.218;3.452;2022-12-05T18:05:16;18.47;;;13.13;;
20870;SDS011;10595;51.218;3.452;2022-12-05T18:07:42;19.87;;;12.90;;
20870;SDS011;10595;51.218;3.452;2022-12-05T18:10:10;20.93;;;12.00;;
20870;SDS011;10595;51.218;3.452;2022-12-05T18:12:36;19.00;;;13.10;;
20870;SDS011;10595;51.218;3.452;2022-12-05T18:15:03;21.10;;;12.50;;
20870;SDS011;10595;51.218;3.452;2022-12-05T18:17:29;18.70;;;12.43;;
20870;SDS011;10595;51.218;3.452;2022-12-05T18:19:55;21.63;;;12.37;;
20870;SDS011;10595;51.218;3.452;2022-12-05T18:22:22;18.23;;;12.70;;
20870;SDS011;10595;51.218;3.452;2022-12-05T18:24:48;21.13;;;13.33;;
20870;SDS011;10595;51.218;3.452;2022-12-05T18:27:14;27.13;;;14.47;;
20870;SDS011;10595;51.218;3.452;2022-12-05T18:29:40;28.17;;;14.87;;
20870;SDS011;10595;51.218;3.452;2022-12-05T18:32:06;24.87;;;13.43;;
20870;SDS011;10595;51.218;3.452;2022-12-05T18:34:32;25.10;;;14.03;;
20870;SDS011;10595;51.218;3.452;2022-12-05T18:36:58;22.47;;;13.83;;
20870;SDS011;10595;51.218;3.452;2022-12-05T18:39:24;21.93;;;12.53;;
20870;SDS011;10595;51.218;3.452;2022-12-05T18:41:51;21.40;;;13.47;;
20870;SDS011;10595;51.218;3.452;2022-12-05T18:44:18;18.90;;;12.80;;
20870;SDS011;10595;51.218;3.452;2022-12-05T18:46:44;20.60;;;11.67;;
20870;SDS011;10595;51.218;3.452;2022-12-05T18:49:10;20.43;;;11.77;;
20870;SDS011;10595;51.218;3.452;2022-12-05T18:51:37;19.70;;;12.77;;
20870;SDS011;10595;51.218;3.452;2022-12-05T18:54:03;18.20;;;12.97;;
20870;SDS011;10595;51.218;3.452;2022-12-05T18:56:31;21.17;;;14.43;;
20870;SDS011;10595;51.218;3.452;2022-12-05T18:59:02;20.23;;;14.47;;
20870;SDS011;10595;51.218;3.452;2022-12-05T19:01:29;19.33;;;13.17;;
20870;SDS011;10595;51.218;3.452;2022-12-05T19:03:56;22.03;;;13.07;;
20870;SDS011;10595;51.218;3.452;2022-12-05T19:06:23;16.63;;;12.40;;
20870;SDS011;10595;51.218;3.452;2022-12-05T19:08:53;19.40;;;13.30;;
20870;SDS011;10595;51.218;3.452;2022-12-05T19:11:20;21.07;;;13.60;;
20870;SDS011;10595;51.218;3.452;2022-12-05T19:13:46;21.57;;;13.23;;
20870;SDS011;10595;51.218;3.452;2022-12-05T19:16:12;20.73;;;12.30;;
20870;SDS011;10595;51.218;3.452;2022-12-05T19:18:41;19.60;;;11.60;;
20870;SDS011;10595;51.218;3.452;2022-12-05T19:21:07;19.27;;;11.33;;
20870;SDS011;10595;51.218;3.452;2022-12-05T19:23:33;18.67;;;10.67;;
20870;SDS011;10595;51.218;3.452;2022-12-05T19:26:00;13.93;;;10.33;;
20870;SDS011;10595;51.218;3.452;2022-12-05T19:28:26;15.70;;;10.10;;
20870;SDS011;10595;51.218;3.452;2022-12-05T19:30:59;15.43;;;10.23;;
20870;SDS011;10595;51.218;3.452;2022-12-05T19:33:28;18.07;;;10.63;;
20870;SDS011;10595;51.218;3.452;2022-12-05T19:35:54;13.37;;;9.57;;
20870;SDS011;10595;51.218;3.452;2022-12-05T19:38:20;16.07;;;10.63;;